sensor_id;sensor_type;location;lat;lon;timestamp;pressure;altitude;pressure_sealevel;temperature;humidity
70217;BME280;57608;0.000;0.000;2022-07-29T00:01:51;99210.63;;;25.83;43.77
70217;BME280;57608;0.000;0.000;2022-07-29T00:04:20;99209.50;;;25.78;43.76
70217;BME280;57608;0.000;0.000;2022-07-29T00:06:45;99211.88;;;25.72;43.76
70217;BME280;57608;0.000;0.000;2022-07-29T00:09:11;99214.94;;;25.61;43.71
70217;BME280;57608;0.000;0.000;2022-07-29T00:11:36;99224.25;;;25.42;43.77
70217;BME280;57608;0.000;0.000;2022-07-29T00:14:02;99220.44;;;25.20;43.78
70217;BME280;57608;0.000;0.000;2022-07-29T00:16:28;99216.97;;;25.03;44.07
70217;BME280;57608;0.000;0.000;2022-07-29T00:18:53;99217.69;;;24.88;44.41
70217;BME280;57608;0.000;0.000;2022-07-29T00:21:18;99221.72;;;24.76;44.52
70217;BME280;57608;0.000;0.000;2022-07-29T00:23:44;99218.56;;;24.64;44.72
70217;BME280;57608;0.000;0.000;2022-07-29T00:26:09;99223.91;;;24.56;44.67
70217;BME280;57608;0.000;0.000;2022-07-29T00:28:35;99234.97;;;24.53;44.91
70217;BME280;57608;0.000;0.000;2022-07-29T00:31:00;99221.91;;;24.58;45.13
70217;BME280;57608;0.000;0.000;2022-07-29T00:33:26;99224.59;;;24.66;44.93
70217;BME280;57608;0.000;0.000;2022-07-29T00:35:51;99224.56;;;24.74;44.50
70217;BME280;57608;0.000;0.000;2022-07-29T00:38:18;99227.25;;;24.83;44.38
70217;BME280;57608;0.000;0.000;2022-07-29T00:40:46;99225.03;;;24.86;44.31
70217;BME280;57608;0.000;0.000;2022-07-29T00:43:12;99228.59;;;24.87;44.47
70217;BME280;57608;0.000;0.000;2022-07-29T00:45:39;99227.94;;;24.77;44.08
70217;BME280;57608;0.000;0.000;2022-07-29T00:48:05;99233.94;;;24.62;44.57
70217;BME280;57608;0.000;0.000;2022-07-29T00:50:32;99241.66;;;24.57;44.62
70217;BME280;57608;0.000;0.000;2022-07-29T00:52:58;99244.66;;;24.62;44.69
70217;BME280;57608;0.000;0.000;2022-07-29T00:55:24;99241.50;;;24.75;44.47
70217;BME280;57608;0.000;0.000;2022-07-29T00:57:50;99246.34;;;24.88;44.30
70217;BME280;57608;0.000;0.000;2022-07-29T01:00:21;99240.59;;;24.99;44.30
70217;BME280;57608;0.000;0.000;2022-07-29T01:02:47;99246.59;;;25.10;44.13
70217;BME280;57608;0.000;0.000;2022-07-29T01:05:18;99242.25;;;25.17;43.89
70217;BME280;57608;0.000;0.000;2022-07-29T01:07:44;99244.06;;;25.24;43.69
70217;BME280;57608;0.000;0.000;2022-07-29T01:10:12;99249.91;;;25.28;43.36
70217;BME280;57608;0.000;0.000;2022-07-29T01:12:39;99247.06;;;25.30;43.32
70217;BME280;57608;0.000;0.000;2022-07-29T01:15:06;99250.22;;;25.33;43.32
70217;BME280;57608;0.000;0.000;2022-07-29T01:30:41;99248.91;;;25.37;43.37
70217;BME280;57608;0.000;0.000;2022-07-29T01:33:11;99255.28;;;25.36;43.15
70217;BME280;57608;0.000;0.000;2022-07-29T01:36:01;99253.75;;;25.34;43.46
70217;BME280;57608;0.000;0.000;2022-07-29T01:38:28;99251.94;;;25.26;43.43
70217;BME280;57608;0.000;0.000;2022-07-29T01:40:59;99249.28;;;25.10;43.48
70217;BME280;57608;0.000;0.000;2022-07-29T01:43:35;99249.03;;;24.88;43.79
70217;BME280;57608;0.000;0.000;2022-07-29T01:46:09;99258.06;;;24.70;43.80
70217;BME280;57608;0.000;0.000;2022-07-29T01:48:40;99254.34;;;24.55;44.09
70217;BME280;57608;0.000;0.000;2022-07-29T01:51:24;99254.03;;;24.41;44.29
70217;BME280;57608;0.000;0.000;2022-07-29T01:56:26;99262.38;;;24.22;44.64
70217;BME280;57608;0.000;0.000;2022-07-29T01:58:54;99255.34;;;24.21;44.64
70217;BME280;57608;0.000;0.000;2022-07-29T02:01:21;99254.00;;;24.25;44.92
70217;BME280;57608;0.000;0.000;2022-07-29T02:03:50;99251.84;;;24.37;44.71
70217;BME280;57608;0.000;0.000;2022-07-29T02:06:20;99252.69;;;24.46;44.63
70217;BME280;57608;0.000;0.000;2022-07-29T02:08:48;99250.16;;;24.52;44.51
70217;BME280;57608;0.000;0.000;2022-07-29T02:11:15;99252.00;;;24.60;44.36
70217;BME280;57608;0.000;0.000;2022-07-29T02:13:42;99247.84;;;24.57;44.28
70217;BME280;57608;0.000;0.000;2022-07-29T02:16:09;99257.88;;;24.47;44.48
70217;BME280;57608;0.000;0.000;2022-07-29T02:18:40;99265.41;;;24.35;44.58
70217;BME280;57608;0.000;0.000;2022-07-29T02:21:09;99269.06;;;24.34;44.97
70217;BME280;57608;0.000;0.000;2022-07-29T02:23:35;99260.91;;;24.44;44.56
70217;BME280;57608;0.000;0.000;2022-07-29T02:26:02;99259.41;;;24.58;44.48
70217;BME280;57608;0.000;0.000;2022-07-29T02:28:29;99266.78;;;24.72;44.34
70217;BME280;57608;0.000;0.000;2022-07-29T02:30:58;99256.72;;;24.83;44.27
70217;BME280;57608;0.000;0.000;2022-07-29T02:33:25;99269.75;;;24.94;44.29
70217;BME280;57608;0.000;0.000;2022-07-29T02:35:52;99268.06;;;25.01;43.94
70217;BME280;57608;0.000;0.000;2022-07-29T02:38:18;99267.53;;;25.06;43.85
70217;BME280;57608;0.000;0.000;2022-07-29T02:41:07;99258.00;;;25.12;43.88
70217;BME280;57608;0.000;0.000;2022-07-29T02:43:34;99254.97;;;25.15;43.81
70217;BME280;57608;0.000;0.000;2022-07-29T02:46:04;99258.97;;;25.19;43.65
70217;BME280;57608;0.000;0.000;2022-07-29T02:48:38;99261.66;;;25.19;43.60
70217;BME280;57608;0.000;0.000;2022-07-29T02:51:08;99265.00;;;25.21;43.61
70217;BME280;57608;0.000;0.000;2022-07-29T02:53:37;99266.00;;;25.20;43.39
70217;BME280;57608;0.000;0.000;2022-07-29T02:56:10;99262.50;;;25.19;43.60
70217;BME280;57608;0.000;0.000;2022-07-29T02:58:41;99259.16;;;25.17;43.34
70217;BME280;57608;0.000;0.000;2022-07-29T03:01:13;99265.69;;;25.15;43.22
70217;BME280;57608;0.000;0.000;2022-07-29T03:03:42;99261.00;;;25.08;43.16
70217;BME280;57608;0.000;0.000;2022-07-29T03:06:09;99268.56;;;24.97;43.52
70217;BME280;57608;0.000;0.000;2022-07-29T03:08:37;99266.94;;;24.79;43.43
70217;BME280;57608;0.000;0.000;2022-07-29T03:11:03;99263.72;;;24.59;43.48
70217;BME280;57608;0.000;0.000;2022-07-29T03:13:30;99279.63;;;24.44;43.78
70217;BME280;57608;0.000;0.000;2022-07-29T03:15:57;99267.75;;;24.30;44.04
70217;BME280;57608;0.000;0.000;2022-07-29T03:18:24;99278.94;;;24.17;44.18
70217;BME280;57608;0.000;0.000;2022-07-29T03:20:51;99268.69;;;24.04;44.28
70217;BME280;57608;0.000;0.000;2022-07-29T03:23:20;99264.34;;;23.95;44.55
70217;BME280;57608;0.000;0.000;2022-07-29T03:25:48;99265.50;;;23.92;44.59
70217;BME280;57608;0.000;0.000;2022-07-29T03:28:14;99266.69;;;23.98;44.54
70217;BME280;57608;0.000;0.000;2022-07-29T03:30:40;99274.41;;;24.09;44.55
70217;BME280;57608;0.000;0.000;2022-07-29T03:33:05;99268.06;;;24.19;44.10
70217;BME280;57608;0.000;0.000;2022-07-29T03:35:31;99266.41;;;24.26;44.22
70217;BME280;57608;0.000;0.000;2022-07-29T03:37:57;99269.06;;;24.34;44.20
70217;BME280;57608;0.000;0.000;2022-07-29T03:40:28;99274.44;;;24.34;44.15
70217;BME280;57608;0.000;0.000;2022-07-29T03:42:56;99273.75;;;24.24;43.98
70217;BME280;57608;0.000;0.000;2022-07-29T03:45:23;99278.75;;;24.11;44.28
70217;BME280;57608;0.000;0.000;2022-07-29T03:47:53;99265.72;;;24.07;44.33
70217;BME280;57608;0.000;0.000;2022-07-29T03:50:21;99271.91;;;24.16;44.17
70217;BME280;57608;0.000;0.000;2022-07-29T03:52:47;99279.78;;;24.26;43.95
70217;BME280;57608;0.000;0.000;2022-07-29T03:55:14;99277.78;;;24.36;43.99
70217;BME280;57608;0.000;0.000;2022-07-29T03:57:40;99281.16;;;24.47;43.74
70217;BME280;57608;0.000;0.000;2022-07-29T04:00:07;99280.13;;;24.56;43.57
70217;BME280;57608;0.000;0.000;2022-07-29T04:02:33;99277.63;;;24.63;43.41
70217;BME280;57608;0.000;0.000;2022-07-29T04:04:59;99283.19;;;24.69;43.56
70217;BME280;57608;0.000;0.000;2022-07-29T04:07:24;99282.50;;;24.76;43.30
70217;BME280;57608;0.000;0.000;2022-07-29T04:09:50;99283.84;;;24.80;43.13
70217;BME280;57608;0.000;0.000;2022-07-29T04:12:15;99286.03;;;24.84;43.15
70217;BME280;57608;0.000;0.000;2022-07-29T04:14:41;99288.53;;;24.86;43.18
70217;BME280;57608;0.000;0.000;2022-07-29T04:17:06;99289.03;;;24.89;43.32
70217;BME280;57608;0.000;0.000;2022-07-29T04:19:32;99284.19;;;24.93;43.35
70217;BME280;57608;0.000;0.000;2022-07-29T04:21:59;99284.34;;;25.00;43.08
70217;BME280;57608;0.000;0.000;2022-07-29T04:24:25;99288.34;;;25.04;43.26
70217;BME280;57608;0.000;0.000;2022-07-29T04:26:51;99295.22;;;25.06;43.26
70217;BME280;57608;0.000;0.000;2022-07-29T04:29:17;99295.22;;;25.06;43.24
70217;BME280;57608;0.000;0.000;2022-07-29T04:31:43;99294.69;;;25.03;43.37
70217;BME280;57608;0.000;0.000;2022-07-29T04:34:09;99296.91;;;24.91;43.25
70217;BME280;57608;0.000;0.000;2022-07-29T04:36:34;99301.94;;;24.78;43.50
70217;BME280;57608;0.000;0.000;2022-07-29T04:39:01;99301.59;;;24.64;43.74
70217;BME280;57608;0.000;0.000;2022-07-29T04:41:27;99302.56;;;24.55;44.00
70217;BME280;57608;0.000;0.000;2022-07-29T04:43:53;99315.78;;;24.48;44.16
70217;BME280;57608;0.000;0.000;2022-07-29T04:46:19;99314.63;;;24.42;44.21
70217;BME280;57608;0.000;0.000;2022-07-29T04:48:48;99311.75;;;24.36;44.13
70217;BME280;57608;0.000;0.000;2022-07-29T04:51:16;99309.22;;;24.34;44.56
70217;BME280;57608;0.000;0.000;2022-07-29T04:53:42;99300.88;;;24.37;44.42
70217;BME280;57608;0.000;0.000;2022-07-29T04:56:07;99311.25;;;24.49;44.42
70217;BME280;57608;0.000;0.000;2022-07-29T04:58:36;99311.09;;;24.58;44.03
70217;BME280;57608;0.000;0.000;2022-07-29T05:01:02;99307.63;;;24.66;44.01
70217;BME280;57608;0.000;0.000;2022-07-29T05:03:28;99316.66;;;24.73;43.85
70217;BME280;57608;0.000;0.000;2022-07-29T05:05:53;99306.78;;;24.74;43.89
70217;BME280;57608;0.000;0.000;2022-07-29T05:08:19;99303.78;;;24.69;43.80
70217;BME280;57608;0.000;0.000;2022-07-29T05:10:45;99311.78;;;24.61;43.98
70217;BME280;57608;0.000;0.000;2022-07-29T05:13:10;99303.91;;;24.59;44.31
70217;BME280;57608;0.000;0.000;2022-07-29T05:15:36;99312.00;;;24.67;44.11
70217;BME280;57608;0.000;0.000;2022-07-29T05:18:02;99311.97;;;24.84;43.74
70217;BME280;57608;0.000;0.000;2022-07-29T05:20:28;99306.09;;;24.97;43.56
70217;BME280;57608;0.000;0.000;2022-07-29T05:22:56;99310.94;;;25.10;43.35
70217;BME280;57608;0.000;0.000;2022-07-29T05:25:21;99306.22;;;25.20;43.38
70217;BME280;57608;0.000;0.000;2022-07-29T05:27:47;99307.88;;;25.29;43.21
70217;BME280;57608;0.000;0.000;2022-07-29T05:30:13;99305.38;;;25.36;43.07
70217;BME280;57608;0.000;0.000;2022-07-29T05:32:38;99298.50;;;25.42;42.89
70217;BME280;57608;0.000;0.000;2022-07-29T05:35:04;99305.19;;;25.46;42.70
70217;BME280;57608;0.000;0.000;2022-07-29T05:37:29;99306.50;;;25.50;42.90
70217;BME280;57608;0.000;0.000;2022-07-29T05:39:55;99305.50;;;25.51;42.72
70217;BME280;57608;0.000;0.000;2022-07-29T05:42:20;99306.16;;;25.53;42.64
70217;BME280;57608;0.000;0.000;2022-07-29T05:44:46;99304.16;;;25.55;42.66
70217;BME280;57608;0.000;0.000;2022-07-29T05:47:12;99303.97;;;25.56;42.68
70217;BME280;57608;0.000;0.000;2022-07-29T05:49:38;99301.78;;;25.60;42.80
70217;BME280;57608;0.000;0.000;2022-07-29T05:52:04;99305.16;;;25.62;42.60
70217;BME280;57608;0.000;0.000;2022-07-29T05:54:29;99308.47;;;25.64;42.74
70217;BME280;57608;0.000;0.000;2022-07-29T05:56:55;99298.09;;;25.61;42.78
70217;BME280;57608;0.000;0.000;2022-07-29T05:59:20;99302.81;;;25.51;42.82
70217;BME280;57608;0.000;0.000;2022-07-29T06:01:46;99299.88;;;25.37;42.80
70217;BME280;57608;0.000;0.000;2022-07-29T06:04:11;99308.56;;;25.23;43.00
70217;BME280;57608;0.000;0.000;2022-07-29T06:06:37;99298.38;;;25.10;43.22
70217;BME280;57608;0.000;0.000;2022-07-29T06:09:03;99297.38;;;25.03;43.29
70217;BME280;57608;0.000;0.000;2022-07-29T06:11:28;99307.94;;;24.96;43.36
70217;BME280;57608;0.000;0.000;2022-07-29T06:13:54;99297.06;;;24.89;43.75
70217;BME280;57608;0.000;0.000;2022-07-29T06:16:19;99304.25;;;24.89;43.79
70217;BME280;57608;0.000;0.000;2022-07-29T06:18:45;99305.63;;;24.93;43.68
70217;BME280;57608;0.000;0.000;2022-07-29T06:21:10;99308.78;;;25.05;43.76
70217;BME280;57608;0.000;0.000;2022-07-29T06:23:37;99297.03;;;25.14;43.50
70217;BME280;57608;0.000;0.000;2022-07-29T06:26:04;99294.16;;;25.24;43.53
70217;BME280;57608;0.000;0.000;2022-07-29T06:28:29;99294.78;;;25.34;43.38
70217;BME280;57608;0.000;0.000;2022-07-29T06:30:55;99301.38;;;25.40;43.21
70217;BME280;57608;0.000;0.000;2022-07-29T06:33:23;99298.19;;;25.36;42.97
70217;BME280;57608;0.000;0.000;2022-07-29T06:35:49;99298.50;;;25.25;43.22
70217;BME280;57608;0.000;0.000;2022-07-29T06:38:15;99294.00;;;25.17;43.26
70217;BME280;57608;0.000;0.000;2022-07-29T06:40:44;99302.53;;;25.21;43.51
70217;BME280;57608;0.000;0.000;2022-07-29T06:43:27;99285.94;;;25.34;43.34
70217;BME280;57608;0.000;0.000;2022-07-29T06:45:54;99284.56;;;25.46;43.24
70217;BME280;57608;0.000;0.000;2022-07-29T06:48:19;99281.50;;;25.58;43.42
70217;BME280;57608;0.000;0.000;2022-07-29T06:50:47;99286.31;;;25.70;42.83
70217;BME280;57608;0.000;0.000;2022-07-29T06:53:12;99275.91;;;25.76;42.91
70217;BME280;57608;0.000;0.000;2022-07-29T06:55:38;99289.25;;;25.84;42.75
70217;BME280;57608;0.000;0.000;2022-07-29T06:58:03;99287.75;;;25.89;42.68
70217;BME280;57608;0.000;0.000;2022-07-29T07:00:29;99284.34;;;25.96;42.45
70217;BME280;57608;0.000;0.000;2022-07-29T07:02:54;99289.00;;;26.02;42.53
70217;BME280;57608;0.000;0.000;2022-07-29T07:05:19;99291.19;;;26.07;42.61
70217;BME280;57608;0.000;0.000;2022-07-29T07:07:45;99285.47;;;26.10;42.48
70217;BME280;57608;0.000;0.000;2022-07-29T07:10:10;99289.66;;;26.12;42.33
70217;BME280;57608;0.000;0.000;2022-07-29T07:12:36;99295.69;;;26.14;42.40
70217;BME280;57608;0.000;0.000;2022-07-29T07:15:02;99297.19;;;26.17;42.32
70217;BME280;57608;0.000;0.000;2022-07-29T07:17:28;99297.00;;;26.18;42.18
70217;BME280;57608;0.000;0.000;2022-07-29T07:19:53;99289.94;;;26.17;41.83
70217;BME280;57608;0.000;0.000;2022-07-29T07:22:19;99303.19;;;26.19;41.88
70217;BME280;57608;0.000;0.000;2022-07-29T07:24:44;99303.84;;;26.21;42.02
70217;BME280;57608;0.000;0.000;2022-07-29T07:27:10;99302.84;;;26.22;41.84
70217;BME280;57608;0.000;0.000;2022-07-29T07:29:35;99302.50;;;26.25;42.10
70217;BME280;57608;0.000;0.000;2022-07-29T07:32:01;99302.66;;;26.24;41.87
70217;BME280;57608;0.000;0.000;2022-07-29T07:34:27;99303.69;;;26.22;42.00
70217;BME280;57608;0.000;0.000;2022-07-29T07:36:52;99305.38;;;26.15;41.54
70217;BME280;57608;0.000;0.000;2022-07-29T07:39:18;99308.16;;;25.99;42.13
70217;BME280;57608;0.000;0.000;2022-07-29T07:41:43;99307.22;;;25.83;42.00
70217;BME280;57608;0.000;0.000;2022-07-29T07:44:08;99294.88;;;25.66;42.32
70217;BME280;57608;0.000;0.000;2022-07-29T07:46:34;99297.09;;;25.54;42.72
70217;BME280;57608;0.000;0.000;2022-07-29T07:48:59;99300.19;;;25.43;42.66
70217;BME280;57608;0.000;0.000;2022-07-29T07:51:25;99301.16;;;25.33;42.68
70217;BME280;57608;0.000;0.000;2022-07-29T07:53:50;99309.41;;;25.23;42.73
70217;BME280;57608;0.000;0.000;2022-07-29T07:56:16;99298.19;;;25.20;42.80
70217;BME280;57608;0.000;0.000;2022-07-29T07:58:42;99313.41;;;25.28;42.77
70217;BME280;57608;0.000;0.000;2022-07-29T08:01:08;99308.72;;;25.38;42.98
70217;BME280;57608;0.000;0.000;2022-07-29T08:03:34;99307.88;;;25.46;42.54
70217;BME280;57608;0.000;0.000;2022-07-29T08:05:59;99315.88;;;25.54;42.47
70217;BME280;57608;0.000;0.000;2022-07-29T08:08:25;99315.88;;;25.62;42.30
70217;BME280;57608;0.000;0.000;2022-07-29T08:10:50;99320.00;;;25.73;42.31
70217;BME280;57608;0.000;0.000;2022-07-29T08:13:22;99308.06;;;25.84;42.33
70217;BME280;57608;0.000;0.000;2022-07-29T08:15:48;99307.47;;;25.97;42.13
70217;BME280;57608;0.000;0.000;2022-07-29T08:18:23;99312.16;;;26.03;42.15
70217;BME280;57608;0.000;0.000;2022-07-29T08:20:49;99310.13;;;26.13;41.85
70217;BME280;57608;0.000;0.000;2022-07-29T08:23:14;99312.94;;;26.20;42.06
70217;BME280;57608;0.000;0.000;2022-07-29T08:25:41;99309.16;;;26.29;41.66
70217;BME280;57608;0.000;0.000;2022-07-29T08:28:07;99304.81;;;26.28;41.71
70217;BME280;57608;0.000;0.000;2022-07-29T08:30:33;99311.16;;;26.35;41.37
70217;BME280;57608;0.000;0.000;2022-07-29T08:32:58;99304.94;;;26.35;41.48
70217;BME280;57608;0.000;0.000;2022-07-29T08:35:25;99297.72;;;26.35;41.42
70217;BME280;57608;0.000;0.000;2022-07-29T08:37:51;99304.41;;;26.39;41.04
70217;BME280;57608;0.000;0.000;2022-07-29T08:40:17;99302.19;;;26.43;41.06
70217;BME280;57608;0.000;0.000;2022-07-29T08:42:44;99295.63;;;26.46;41.19
70217;BME280;57608;0.000;0.000;2022-07-29T08:45:09;99301.50;;;26.49;41.14
70217;BME280;57608;0.000;0.000;2022-07-29T08:47:35;99306.50;;;26.52;40.91
70217;BME280;57608;0.000;0.000;2022-07-29T08:50:08;99304.47;;;26.54;40.74
70217;BME280;57608;0.000;0.000;2022-07-29T08:52:39;99295.38;;;26.55;40.96
70217;BME280;57608;0.000;0.000;2022-07-29T08:55:09;99299.91;;;26.55;41.06
70217;BME280;57608;0.000;0.000;2022-07-29T08:57:35;99294.91;;;26.52;40.72
70217;BME280;57608;0.000;0.000;2022-07-29T09:00:03;99304.69;;;26.45;41.08
70217;BME280;57608;0.000;0.000;2022-07-29T09:02:40;99296.75;;;26.28;41.51
70217;BME280;57608;0.000;0.000;2022-07-29T09:05:07;99292.34;;;26.12;41.33
70217;BME280;57608;0.000;0.000;2022-07-29T09:07:33;99306.28;;;25.99;41.50
70217;BME280;57608;0.000;0.000;2022-07-29T09:09:59;99299.66;;;25.87;41.54
70217;BME280;57608;0.000;0.000;2022-07-29T09:12:25;99302.38;;;25.79;41.92
70217;BME280;57608;0.000;0.000;2022-07-29T09:14:51;99293.69;;;25.68;41.91
70217;BME280;57608;0.000;0.000;2022-07-29T09:17:17;99294.41;;;25.62;41.78
70217;BME280;57608;0.000;0.000;2022-07-29T09:19:43;99304.28;;;25.62;41.97
70217;BME280;57608;0.000;0.000;2022-07-29T09:22:09;99298.06;;;25.69;42.15
70217;BME280;57608;0.000;0.000;2022-07-29T09:24:45;99303.22;;;25.79;42.29
70217;BME280;57608;0.000;0.000;2022-07-29T09:30:04;99306.47;;;25.98;42.08
70217;BME280;57608;0.000;0.000;2022-07-29T09:32:31;99300.59;;;26.02;41.34
70217;BME280;57608;0.000;0.000;2022-07-29T09:35:19;99299.25;;;25.98;41.44
70217;BME280;57608;0.000;0.000;2022-07-29T09:37:46;99310.22;;;25.88;41.40
70217;BME280;57608;0.000;0.000;2022-07-29T09:40:22;99302.03;;;25.82;41.91
70217;BME280;57608;0.000;0.000;2022-07-29T09:42:49;99303.53;;;25.84;41.52
70217;BME280;57608;0.000;0.000;2022-07-29T09:45:33;99301.28;;;25.96;41.83
70217;BME280;57608;0.000;0.000;2022-07-29T09:48:00;99306.94;;;26.10;41.24
70217;BME280;57608;0.000;0.000;2022-07-29T09:50:43;99303.84;;;26.21;41.44
70217;BME280;57608;0.000;0.000;2022-07-29T09:53:09;99315.22;;;26.31;41.21
70217;BME280;57608;0.000;0.000;2022-07-29T09:55:50;99311.63;;;26.39;41.24
70217;BME280;57608;0.000;0.000;2022-07-29T09:58:21;99321.81;;;26.44;41.21
70217;BME280;57608;0.000;0.000;2022-07-29T10:00:49;99312.56;;;26.46;40.75
70217;BME280;57608;0.000;0.000;2022-07-29T10:03:16;99308.50;;;26.50;40.73
70217;BME280;57608;0.000;0.000;2022-07-29T10:05:42;99309.00;;;26.54;40.27
70217;BME280;57608;0.000;0.000;2022-07-29T10:08:10;99318.06;;;26.53;39.43
70217;BME280;57608;0.000;0.000;2022-07-29T10:10:41;99315.38;;;26.53;39.32
70217;BME280;57608;0.000;0.000;2022-07-29T10:13:09;99311.69;;;26.54;38.70
70217;BME280;57608;0.000;0.000;2022-07-29T10:15:37;99307.31;;;26.53;38.08
70217;BME280;57608;0.000;0.000;2022-07-29T10:18:07;99304.81;;;26.51;38.31
70217;BME280;57608;0.000;0.000;2022-07-29T10:20:32;99306.69;;;26.51;38.04
70217;BME280;57608;0.000;0.000;2022-07-29T10:22:58;99311.69;;;26.54;38.80
70217;BME280;57608;0.000;0.000;2022-07-29T10:25:24;99301.78;;;26.54;38.46
70217;BME280;57608;0.000;0.000;2022-07-29T10:27:51;99302.31;;;26.50;38.18
70217;BME280;57608;0.000;0.000;2022-07-29T10:30:17;99308.75;;;26.41;37.72
70217;BME280;57608;0.000;0.000;2022-07-29T10:39:04;99300.44;;;25.96;36.56
70217;BME280;57608;0.000;0.000;2022-07-29T10:41:39;99294.16;;;25.80;36.29
70217;BME280;57608;0.000;0.000;2022-07-29T10:44:34;99306.09;;;25.69;36.08
70217;BME280;57608;0.000;0.000;2022-07-29T10:46:59;99292.91;;;25.60;35.92
70217;BME280;57608;0.000;0.000;2022-07-29T10:49:26;99298.28;;;25.51;35.58
70217;BME280;57608;0.000;0.000;2022-07-29T10:51:56;99294.47;;;25.46;35.53
70217;BME280;57608;0.000;0.000;2022-07-29T10:54:47;99293.97;;;25.42;36.26
70217;BME280;57608;0.000;0.000;2022-07-29T10:59:39;99297.16;;;25.46;36.25
70217;BME280;57608;0.000;0.000;2022-07-29T11:07:22;99296.38;;;25.68;37.07
70217;BME280;57608;0.000;0.000;2022-07-29T11:15:10;99301.59;;;25.70;37.54
70217;BME280;57608;0.000;0.000;2022-07-29T11:20:44;99301.38;;;25.80;37.34
70217;BME280;57608;0.000;0.000;2022-07-29T11:28:54;99307.31;;;25.98;37.52
70217;BME280;57608;0.000;0.000;2022-07-29T11:31:43;99310.47;;;26.02;37.07
70217;BME280;57608;0.000;0.000;2022-07-29T11:34:26;99312.97;;;26.03;36.88
70217;BME280;57608;0.000;0.000;2022-07-29T11:45:00;99309.31;;;26.04;36.49
70217;BME280;57608;0.000;0.000;2022-07-29T11:47:28;99308.50;;;26.04;36.65
70217;BME280;57608;0.000;0.000;2022-07-29T11:49:55;99315.53;;;26.05;36.54
70217;BME280;57608;0.000;0.000;2022-07-29T11:52:23;99314.69;;;26.04;36.74
70217;BME280;57608;0.000;0.000;2022-07-29T11:54:50;99313.16;;;26.02;36.47
70217;BME280;57608;0.000;0.000;2022-07-29T11:57:19;99318.72;;;26.00;36.54
70217;BME280;57608;0.000;0.000;2022-07-29T11:59:46;99316.22;;;25.99;36.45
70217;BME280;57608;0.000;0.000;2022-07-29T12:02:13;99313.53;;;25.99;36.97
70217;BME280;57608;0.000;0.000;2022-07-29T12:04:55;99309.97;;;25.98;37.01
70217;BME280;57608;0.000;0.000;2022-07-29T12:07:28;99310.34;;;25.95;37.16
70217;BME280;57608;0.000;0.000;2022-07-29T12:09:54;99298.63;;;25.88;37.92
70217;BME280;57608;0.000;0.000;2022-07-29T12:12:22;99306.22;;;25.84;37.73
70217;BME280;57608;0.000;0.000;2022-07-29T12:14:50;99305.22;;;25.77;37.85
70217;BME280;57608;0.000;0.000;2022-07-29T12:17:29;99296.69;;;25.73;38.11
70217;BME280;57608;0.000;0.000;2022-07-29T12:19:55;99299.06;;;25.68;37.98
70217;BME280;57608;0.000;0.000;2022-07-29T12:22:28;99303.28;;;25.63;37.82
70217;BME280;57608;0.000;0.000;2022-07-29T12:25:01;99293.06;;;25.58;38.10
70217;BME280;57608;0.000;0.000;2022-07-29T12:27:27;99293.91;;;25.59;38.29
70217;BME280;57608;0.000;0.000;2022-07-29T12:30:01;99297.09;;;25.62;38.21
70217;BME280;57608;0.000;0.000;2022-07-29T12:32:38;99298.22;;;25.68;37.95
70217;BME280;57608;0.000;0.000;2022-07-29T12:35:06;99297.53;;;25.74;37.71
70217;BME280;57608;0.000;0.000;2022-07-29T12:37:34;99301.19;;;25.81;37.54
70217;BME280;57608;0.000;0.000;2022-07-29T12:40:02;99295.13;;;25.87;37.20
70217;BME280;57608;0.000;0.000;2022-07-29T12:42:28;99287.19;;;25.94;37.28
70217;BME280;57608;0.000;0.000;2022-07-29T12:44:54;99298.91;;;26.01;36.88
70217;BME280;57608;0.000;0.000;2022-07-29T12:47:20;99292.88;;;26.08;37.10
70217;BME280;57608;0.000;0.000;2022-07-29T12:49:47;99292.50;;;26.11;36.77
70217;BME280;57608;0.000;0.000;2022-07-29T12:52:34;99287.63;;;26.14;37.12
70217;BME280;57608;0.000;0.000;2022-07-29T12:55:01;99284.56;;;26.17;36.41
70217;BME280;57608;0.000;0.000;2022-07-29T12:57:27;99286.91;;;26.20;36.52
70217;BME280;57608;0.000;0.000;2022-07-29T13:00:11;99294.78;;;26.22;36.35
70217;BME280;57608;0.000;0.000;2022-07-29T13:02:38;99292.75;;;26.24;36.51
70217;BME280;57608;0.000;0.000;2022-07-29T13:05:05;99291.75;;;26.25;36.68
70217;BME280;57608;0.000;0.000;2022-07-29T13:07:32;99293.25;;;26.28;37.03
70217;BME280;57608;0.000;0.000;2022-07-29T13:10:17;99293.72;;;26.31;36.99
70217;BME280;57608;0.000;0.000;2022-07-29T13:13:08;99293.34;;;26.34;36.55
70217;BME280;57608;0.000;0.000;2022-07-29T13:15:43;99284.28;;;26.35;36.23
70217;BME280;57608;0.000;0.000;2022-07-29T13:20:54;99294.66;;;26.38;36.35
70217;BME280;57608;0.000;0.000;2022-07-29T13:23:19;99290.97;;;26.39;36.19
70217;BME280;57608;0.000;0.000;2022-07-29T13:25:45;99282.72;;;26.41;36.44
70217;BME280;57608;0.000;0.000;2022-07-29T13:28:10;99288.94;;;26.42;36.36
70217;BME280;57608;0.000;0.000;2022-07-29T13:30:37;99288.09;;;26.41;36.28
70217;BME280;57608;0.000;0.000;2022-07-29T13:33:03;99288.94;;;26.42;36.43
70217;BME280;57608;0.000;0.000;2022-07-29T13:35:28;99279.41;;;26.39;36.31
70217;BME280;57608;0.000;0.000;2022-07-29T13:37:54;99281.22;;;26.38;36.26
70217;BME280;57608;0.000;0.000;2022-07-29T13:40:20;99277.44;;;26.33;35.73
70217;BME280;57608;0.000;0.000;2022-07-29T13:42:46;99277.50;;;26.25;36.17
70217;BME280;57608;0.000;0.000;2022-07-29T13:45:11;99288.09;;;26.18;36.18
70217;BME280;57608;0.000;0.000;2022-07-29T13:47:37;99283.44;;;26.12;36.57
70217;BME280;57608;0.000;0.000;2022-07-29T13:50:04;99293.88;;;26.07;37.04
70217;BME280;57608;0.000;0.000;2022-07-29T13:52:30;99288.81;;;26.03;37.04
70217;BME280;57608;0.000;0.000;2022-07-29T13:54:56;99288.19;;;26.01;37.31
70217;BME280;57608;0.000;0.000;2022-07-29T13:57:21;99286.88;;;25.97;37.42
70217;BME280;57608;0.000;0.000;2022-07-29T13:59:47;99290.38;;;25.98;37.15
70217;BME280;57608;0.000;0.000;2022-07-29T14:02:12;99280.31;;;26.00;36.74
70217;BME280;57608;0.000;0.000;2022-07-29T14:04:38;99286.31;;;26.02;36.71
70217;BME280;57608;0.000;0.000;2022-07-29T14:07:04;99287.84;;;26.04;36.59
70217;BME280;57608;0.000;0.000;2022-07-29T14:09:30;99278.06;;;26.03;35.96
70217;BME280;57608;0.000;0.000;2022-07-29T14:11:56;99283.16;;;25.98;36.18